createdAt,value
2023-03-25T00:01:38.272Z,100209.97
2023-03-25T00:04:07.293Z,100209.66
2023-03-25T00:06:34.746Z,100152.75
2023-03-25T00:09:02.716Z,100221.94
2023-03-25T00:11:29.590Z,100161.13
2023-03-25T00:13:56.510Z,100072.06
2023-03-25T00:16:23.545Z,100163.47
2023-03-25T00:18:51.449Z,100163.63
2023-03-25T00:21:22.338Z,100162.34
2023-03-25T00:23:49.144Z,100165.88
2023-03-25T00:26:18.653Z,100168.09
2023-03-25T00:28:45.358Z,100219.41
2023-03-25T00:31:15.630Z,100142.16
2023-03-25T00:33:42.823Z,100229.25
2023-03-25T00:36:18.129Z,100230.28
2023-03-25T00:38:45.705Z,100224.84
2023-03-25T00:41:22.989Z,100226.69
2023-03-25T00:43:51.483Z,100156.63
2023-03-25T00:46:18.551Z,100213.41
2023-03-25T00:48:45.467Z,100201.28
2023-03-25T00:51:13.814Z,100124.00
2023-03-25T00:53:41.018Z,100222.59
2023-03-25T00:56:08.366Z,100227.16
2023-03-25T00:58:37.374Z,100210.81
2023-03-25T01:01:16.610Z,100150.66
2023-03-25T01:03:44.777Z,100164.78
2023-03-25T01:06:17.021Z,100140.56
2023-03-25T01:08:48.182Z,100146.88
2023-03-25T01:11:21.693Z,100220.19
2023-03-25T01:13:51.425Z,100213.50
2023-03-25T01:16:18.408Z,100141.44
2023-03-25T01:18:45.413Z,100196.25
2023-03-25T01:21:15.083Z,100204.97
2023-03-25T01:23:41.902Z,100214.91
2023-03-25T01:26:08.567Z,100203.09
2023-03-25T01:28:35.292Z,100198.97
2023-03-25T01:31:04.171Z,100208.06
2023-03-25T01:33:32.774Z,100142.91
2023-03-25T01:36:01.021Z,100208.22
2023-03-25T01:38:37.534Z,100216.00
2023-03-25T01:41:05.106Z,100215.97
2023-03-25T01:43:32.108Z,100216.28
2023-03-25T01:45:59.527Z,100208.03
2023-03-25T01:48:35.798Z,100189.16
2023-03-25T01:51:17.571Z,100205.38
2023-03-25T01:53:47.781Z,100206.41
2023-03-25T01:56:19.483Z,100215.59
2023-03-25T01:58:46.667Z,100191.66
2023-03-25T02:01:16.119Z,100177.13
2023-03-25T02:03:46.386Z,100207.28
2023-03-25T02:06:31.937Z,100173.09
2023-03-25T02:09:01.717Z,100174.09
2023-03-25T02:11:29.684Z,100192.22
2023-03-25T02:14:03.107Z,100180.63
2023-03-25T02:17:03.494Z,100182.03
2023-03-25T02:19:40.939Z,100208.47
2023-03-25T02:22:42.072Z,100202.66
2023-03-25T02:25:35.601Z,100194.78
2023-03-25T02:28:29.859Z,100182.03
2023-03-25T02:30:59.465Z,100178.63
2023-03-25T02:33:54.011Z,100199.47
2023-03-25T02:36:42.342Z,100188.94
2023-03-25T02:39:49.952Z,100179.78
2023-03-25T02:42:19.534Z,100174.16
2023-03-25T02:45:11.920Z,100169.38
2023-03-25T02:47:47.711Z,100183.34
2023-03-25T02:50:20.890Z,100164.88
2023-03-25T02:52:54.412Z,100180.25
2023-03-25T02:55:23.127Z,100178.75
2023-03-25T02:57:53.296Z,100181.47
2023-03-25T03:00:24.440Z,100176.88
2023-03-25T03:03:00.177Z,100175.88
2023-03-25T03:05:29.048Z,100174.16
2023-03-25T03:08:19.140Z,100178.59
2023-03-25T03:11:06.245Z,100035.72
2023-03-25T03:13:57.993Z,100180.47
2023-03-25T03:16:36.461Z,100175.03
2023-03-25T03:19:27.566Z,100180.31
2023-03-25T03:22:21.539Z,99963.13
2023-03-25T03:25:02.168Z,100153.50
2023-03-25T03:27:33.909Z,100167.34
2023-03-25T03:30:10.606Z,100187.44
2023-03-25T03:32:53.849Z,100154.13
2023-03-25T03:35:40.855Z,100182.31
2023-03-25T03:38:16.425Z,100168.81
2023-03-25T03:40:50.273Z,100171.16
2023-03-25T03:43:25.279Z,100170.31
2023-03-25T03:45:57.415Z,100171.53
2023-03-25T03:48:34.632Z,100175.81
2023-03-25T03:51:09.587Z,100114.22
2023-03-25T03:53:45.645Z,100159.72
2023-03-25T03:56:22.162Z,100125.69
2023-03-25T03:58:58.554Z,100068.34
2023-03-25T04:01:46.197Z,100133.00
2023-03-25T04:04:23.983Z,100167.19
2023-03-25T04:07:04.675Z,100162.75
2023-03-25T04:09:43.799Z,100150.44
2023-03-25T04:12:34.790Z,100160.19
2023-03-25T04:15:06.249Z,100150.97
2023-03-25T04:17:37.773Z,100162.44
2023-03-25T04:20:09.189Z,100157.84
2023-03-25T04:22:46.091Z,100160.72
2023-03-25T04:25:17.555Z,100153.28
2023-03-25T04:27:48.883Z,100166.09
2023-03-25T04:30:19.374Z,100147.75
2023-03-25T04:32:47.514Z,100170.69
2023-03-25T04:35:19.245Z,100163.53
2023-03-25T04:37:48.999Z,100167.50
2023-03-25T04:40:19.136Z,100173.81
2023-03-25T04:42:46.649Z,100149.31
2023-03-25T04:45:17.614Z,100173.09
2023-03-25T04:47:49.356Z,100182.13
2023-03-25T04:50:22.659Z,100126.28
2023-03-25T04:52:50.550Z,100165.88
2023-03-25T04:55:23.059Z,100101.47
2023-03-25T04:57:51.513Z,100172.41
2023-03-25T05:00:24.344Z,100152.75
2023-03-25T05:02:56.380Z,100179.00
2023-03-25T05:05:25.102Z,100152.19
2023-03-25T05:07:54.738Z,100176.97
2023-03-25T05:10:23.789Z,100157.88
2023-03-25T05:12:50.532Z,100168.13
2023-03-25T05:15:19.548Z,100178.16
2023-03-25T05:17:46.319Z,100191.94
2023-03-25T05:20:16.413Z,100142.47
2023-03-25T05:22:43.356Z,100179.31
2023-03-25T05:25:13.634Z,100170.47
2023-03-25T05:27:42.747Z,100169.78
2023-03-25T05:30:10.114Z,100158.91
2023-03-25T05:32:37.007Z,100169.19
2023-03-25T05:35:04.600Z,100134.16
2023-03-25T05:37:33.833Z,100200.16
2023-03-25T05:40:04.069Z,100168.50
2023-03-25T05:42:47.096Z,100189.44
2023-03-25T05:45:13.950Z,100144.72
2023-03-25T05:47:41.325Z,100185.53
2023-03-25T05:50:08.822Z,100201.22
2023-03-25T05:52:41.501Z,100197.97
2023-03-25T05:55:12.851Z,100192.75
2023-03-25T05:57:39.493Z,100199.34
2023-03-25T06:00:08.518Z,100199.69
2023-03-25T06:02:38.847Z,100198.44
2023-03-25T06:05:10.054Z,100171.78
2023-03-25T06:07:37.588Z,100212.16
2023-03-25T06:10:05.649Z,100213.16
2023-03-25T06:12:38.768Z,100215.03
2023-03-25T06:15:10.906Z,100201.34
2023-03-25T06:17:40.992Z,100194.69
2023-03-25T06:20:13.189Z,100225.75
2023-03-25T06:22:42.843Z,100201.34
2023-03-25T06:25:19.084Z,100202.34
2023-03-25T06:27:48.618Z,100100.28
2023-03-25T06:30:22.305Z,100220.25
2023-03-25T06:32:50.928Z,100224.56
2023-03-25T06:35:20.819Z,100223.22
2023-03-25T06:37:48.855Z,100115.91
2023-03-25T06:40:16.119Z,100224.50
2023-03-25T06:42:42.857Z,100228.84
2023-03-25T06:45:16.118Z,100140.31
2023-03-25T06:47:42.816Z,100225.78
2023-03-25T06:50:09.888Z,100234.38
2023-03-25T06:52:38.731Z,100237.09
2023-03-25T06:55:05.754Z,100229.25
2023-03-25T06:57:32.389Z,100230.25
2023-03-25T07:00:05.787Z,100246.88
2023-03-25T07:02:32.457Z,100231.00
2023-03-25T07:04:59.063Z,100232.03
2023-03-25T07:07:31.196Z,100227.97
2023-03-25T07:09:57.831Z,100205.50
2023-03-25T07:12:25.322Z,100221.91
2023-03-25T07:14:53.430Z,100225.22
2023-03-25T07:17:20.582Z,100201.75
2023-03-25T07:19:47.571Z,100239.00
2023-03-25T07:22:16.703Z,100239.53
2023-03-25T07:24:43.582Z,100228.84
2023-03-25T07:27:14.860Z,100239.38
2023-03-25T07:29:41.488Z,100167.00
2023-03-25T07:32:08.234Z,100236.47
2023-03-25T07:34:38.230Z,100253.88
2023-03-25T07:37:08.204Z,100242.41
2023-03-25T07:39:37.147Z,100264.03
2023-03-25T07:42:08.542Z,100242.97
2023-03-25T07:44:37.813Z,100238.69
2023-03-25T07:47:09.133Z,100267.75
2023-03-25T07:49:35.778Z,100280.38
2023-03-25T07:52:04.572Z,100267.97
2023-03-25T07:54:31.164Z,100263.72
2023-03-25T07:56:58.061Z,100258.91
2023-03-25T07:59:26.974Z,100262.50
2023-03-25T08:02:00.112Z,100243.84
2023-03-25T08:04:26.743Z,100245.19
2023-03-25T08:06:53.652Z,100260.56
2023-03-25T08:09:22.406Z,100269.97
2023-03-25T08:11:51.485Z,100261.47
2023-03-25T08:14:20.300Z,100282.53
2023-03-25T08:16:47.145Z,100276.59
2023-03-25T08:19:14.238Z,100258.44
2023-03-25T08:21:41.259Z,100287.00
2023-03-25T08:24:08.175Z,100269.97
2023-03-25T08:26:35.377Z,100258.03
2023-03-25T08:29:02.982Z,100274.25
2023-03-25T08:31:32.274Z,100296.00
2023-03-25T08:34:02.915Z,100291.28
2023-03-25T08:36:29.586Z,100298.09
2023-03-25T08:39:01.465Z,100300.88
2023-03-25T08:41:28.082Z,100265.38
2023-03-25T08:43:54.720Z,100277.22
2023-03-25T08:46:21.497Z,100303.00
2023-03-25T08:48:50.298Z,100297.56
2023-03-25T08:51:17.337Z,100301.97
2023-03-25T08:53:43.948Z,100290.63
2023-03-25T08:56:13.569Z,100136.16
2023-03-25T08:58:40.821Z,100306.50
2023-03-25T09:01:07.820Z,100292.31
2023-03-25T09:03:38.752Z,100295.25
2023-03-25T09:06:06.121Z,100293.34
2023-03-25T09:08:33.198Z,100294.09
2023-03-25T09:11:00.267Z,100301.50
2023-03-25T09:13:26.879Z,100289.91
2023-03-25T09:15:53.847Z,100292.63
2023-03-25T09:18:21.174Z,100284.22
2023-03-25T09:20:52.055Z,100258.47
2023-03-25T09:23:18.651Z,100275.56
2023-03-25T09:25:46.346Z,100288.53
2023-03-25T09:28:15.424Z,100267.38
2023-03-25T09:30:42.069Z,100284.56
2023-03-25T09:33:12.147Z,100295.72
2023-03-25T09:35:40.928Z,100279.31
2023-03-25T09:38:07.667Z,100252.69
2023-03-25T09:40:37.138Z,100285.63
2023-03-25T09:43:09.182Z,100302.53
2023-03-25T09:45:47.298Z,100312.63
2023-03-25T09:48:22.743Z,100290.06
2023-03-25T09:50:49.601Z,100298.94
2023-03-25T09:53:26.531Z,100307.47
2023-03-25T09:55:53.804Z,100306.78
2023-03-25T09:58:29.478Z,100321.09
2023-03-25T10:01:04.600Z,100299.09
2023-03-25T10:04:00.773Z,100307.81
2023-03-25T10:06:30.591Z,100297.03
2023-03-25T10:08:59.413Z,100321.81
2023-03-25T10:11:52.005Z,100310.38
2023-03-25T10:14:29.480Z,100330.38
2023-03-25T10:16:58.865Z,100312.09
2023-03-25T10:19:51.244Z,100314.66
2023-03-25T10:22:38.931Z,100336.72
2023-03-25T10:25:15.986Z,100325.16
2023-03-25T10:27:51.791Z,100335.66
2023-03-25T10:30:39.093Z,100327.63
2023-03-25T10:33:15.477Z,100326.19
2023-03-25T10:35:48.438Z,100327.28
2023-03-25T10:38:20.841Z,100331.31
2023-03-25T10:40:53.377Z,100200.44
2023-03-25T10:43:38.234Z,100332.97
2023-03-25T10:46:22.965Z,100341.13
2023-03-25T10:48:52.869Z,100336.97
2023-03-25T10:51:28.315Z,100325.41
2023-03-25T10:53:57.985Z,100338.31
2023-03-25T10:56:32.769Z,100340.13
2023-03-25T10:59:04.292Z,100347.09
2023-03-25T11:01:33.952Z,100348.72
2023-03-25T11:04:04.980Z,100334.88
2023-03-25T11:06:36.523Z,100328.66
2023-03-25T11:09:40.945Z,100340.75
2023-03-25T11:12:10.035Z,100358.88
2023-03-25T11:14:40.814Z,100358.22
2023-03-25T11:17:15.013Z,100362.72
2023-03-25T11:19:54.485Z,100337.75
2023-03-25T11:22:33.926Z,100281.44
2023-03-25T11:25:05.860Z,100354.34
2023-03-25T11:27:44.172Z,100334.56
2023-03-25T11:30:17.675Z,100354.06
2023-03-25T11:32:47.385Z,100382.19
2023-03-25T11:35:29.159Z,100367.25
2023-03-25T11:37:59.187Z,100349.97
2023-03-25T11:40:28.488Z,100334.03
2023-03-25T11:43:00.557Z,100352.94
2023-03-25T11:45:39.228Z,100368.06
2023-03-25T11:48:18.256Z,100296.84
2023-03-25T11:50:54.545Z,100331.97
2023-03-25T11:53:24.725Z,100361.31
2023-03-25T11:55:55.417Z,100359.72
2023-03-25T11:58:28.733Z,100357.94
2023-03-25T12:01:07.513Z,100351.25
2023-03-25T12:03:35.421Z,100340.75
2023-03-25T12:06:16.586Z,100308.69
2023-03-25T12:08:52.363Z,100345.84
2023-03-25T12:11:51.197Z,100330.22
2023-03-25T12:14:35.662Z,100334.25
2023-03-25T12:17:15.774Z,100325.16
2023-03-25T12:19:48.184Z,100332.16
2023-03-25T12:22:28.282Z,100320.63
2023-03-25T12:25:13.532Z,100343.28
2023-03-25T12:28:10.360Z,100342.69
2023-03-25T12:31:04.255Z,100341.88
2023-03-25T12:33:46.286Z,100343.66
2023-03-25T12:36:30.581Z,100344.56
2023-03-25T12:39:15.702Z,100338.50
2023-03-25T12:41:42.225Z,100342.59
2023-03-25T12:44:08.790Z,100339.22
2023-03-25T12:46:49.937Z,100337.19
2023-03-25T12:49:49.803Z,100336.31
2023-03-25T12:52:28.411Z,100338.63
2023-03-25T12:55:16.051Z,100349.00
2023-03-25T12:57:56.916Z,100345.91
2023-03-25T13:00:47.281Z,100346.56
2023-03-25T13:03:19.506Z,100349.13
2023-03-25T13:05:54.301Z,100339.94
2023-03-25T13:08:30.724Z,100286.00
2023-03-25T13:11:09.132Z,100339.94
2023-03-25T13:13:41.906Z,100374.91
2023-03-25T13:16:25.032Z,100368.38
2023-03-25T13:19:00.396Z,100359.53
2023-03-25T13:21:30.987Z,100371.03
2023-03-25T13:24:16.625Z,100354.78
2023-03-25T13:26:46.120Z,100351.50
2023-03-25T13:29:30.740Z,100379.56
2023-03-25T13:32:09.722Z,100345.78
2023-03-25T13:34:51.543Z,100350.72
2023-03-25T13:37:31.770Z,100348.94
2023-03-25T13:40:10.551Z,100353.97
2023-03-25T13:42:46.362Z,100355.22
2023-03-25T13:45:21.272Z,100351.47
2023-03-25T13:48:01.456Z,100354.56
2023-03-25T13:50:32.591Z,100348.16
2023-03-25T13:53:37.968Z,100342.22
2023-03-25T13:56:07.480Z,100373.19
2023-03-25T13:58:43.299Z,100375.81
2023-03-25T14:01:25.073Z,100381.88
2023-03-25T14:04:11.704Z,100385.38
2023-03-25T14:07:00.270Z,100350.66
2023-03-25T14:09:56.880Z,100388.31
2023-03-25T14:12:27.489Z,100376.00
2023-03-25T14:15:09.346Z,100389.00
2023-03-25T14:17:37.164Z,100366.16
2023-03-25T14:20:08.648Z,100383.81
2023-03-25T14:22:43.913Z,100396.66
2023-03-25T14:25:32.726Z,100379.06
2023-03-25T14:28:01.418Z,100380.78
2023-03-25T14:30:32.537Z,100396.91
2023-03-25T14:33:03.377Z,100410.84
2023-03-25T14:35:33.408Z,100401.38
2023-03-25T14:38:43.079Z,100407.09
2023-03-25T14:41:09.937Z,100407.09
2023-03-25T14:43:41.537Z,100390.59
2023-03-25T14:46:10.902Z,100405.31
2023-03-25T14:48:45.041Z,100402.25
2023-03-25T14:51:23.099Z,100415.84
2023-03-25T14:54:05.564Z,100421.84
2023-03-25T14:56:38.199Z,100433.44
2023-03-25T14:59:15.643Z,100428.88
2023-03-25T15:01:47.209Z,100415.25
2023-03-25T15:04:24.929Z,100415.91
2023-03-25T15:06:57.714Z,100420.69
2023-03-25T15:09:27.404Z,100429.50
2023-03-25T15:12:01.162Z,100419.31
2023-03-25T15:14:32.692Z,100429.13
2023-03-25T15:17:06.674Z,100438.44
2023-03-25T15:20:15.603Z,100435.50
2023-03-25T15:22:42.652Z,100365.03
2023-03-25T15:25:18.879Z,100376.13
2023-03-25T15:28:03.106Z,100457.78
2023-03-25T15:30:52.271Z,100441.53
2023-03-25T15:33:40.637Z,100390.31
2023-03-25T15:36:28.058Z,100444.44
2023-03-25T15:39:18.525Z,100442.75
2023-03-25T15:42:11.102Z,100453.53
2023-03-25T15:44:50.548Z,100443.59
2023-03-25T15:47:29.771Z,100453.84
2023-03-25T15:50:14.643Z,100455.72
2023-03-25T15:53:02.413Z,100457.97
2023-03-25T15:55:40.953Z,100454.72
2023-03-25T15:58:18.296Z,100434.75
2023-03-25T16:00:48.670Z,100459.25
2023-03-25T16:03:21.178Z,100459.25
2023-03-25T16:05:53.775Z,100467.47
2023-03-25T16:08:28.333Z,100450.59
2023-03-25T16:10:54.873Z,100481.69
2023-03-25T16:13:25.834Z,100489.22
2023-03-25T16:15:58.085Z,100494.88
2023-03-25T16:18:25.423Z,100493.38
2023-03-25T16:21:01.566Z,100491.16
2023-03-25T16:23:30.729Z,100499.03
2023-03-25T16:25:57.348Z,100503.63
2023-03-25T16:28:40.797Z,100506.06
2023-03-25T16:31:34.364Z,100509.84
2023-03-25T16:34:01.719Z,100496.31
2023-03-25T16:36:31.252Z,100493.94
2023-03-25T16:38:58.093Z,100488.09
2023-03-25T16:41:25.952Z,100508.31
2023-03-25T16:43:54.859Z,100499.59
2023-03-25T16:46:24.231Z,100515.13
2023-03-25T16:48:54.170Z,100476.34
2023-03-25T16:51:29.805Z,100393.63
2023-03-25T16:54:00.862Z,100503.53
2023-03-25T16:56:32.574Z,100510.91
2023-03-25T16:59:07.850Z,100534.16
2023-03-25T17:01:39.478Z,100497.22
2023-03-25T17:04:22.245Z,100498.41
2023-03-25T17:06:53.081Z,100515.84
2023-03-25T17:09:33.969Z,100519.28
2023-03-25T17:12:06.490Z,100528.34
2023-03-25T17:14:37.857Z,100515.16
2023-03-25T17:17:13.438Z,100500.97
2023-03-25T17:19:47.040Z,100519.09
2023-03-25T17:22:26.686Z,100540.63
2023-03-25T17:25:01.278Z,100545.44
2023-03-25T17:27:36.730Z,100541.13
2023-03-25T17:30:20.938Z,100549.53
2023-03-25T17:32:48.501Z,100551.56
2023-03-25T17:35:24.191Z,100547.47
2023-03-25T17:37:51.109Z,100549.50
2023-03-25T17:40:25.341Z,100551.41
2023-03-25T17:42:53.557Z,100538.38
2023-03-25T17:45:22.855Z,100532.72
2023-03-25T17:47:51.298Z,100541.63
2023-03-25T17:50:27.581Z,100579.25
2023-03-25T17:52:55.220Z,100585.94
2023-03-25T17:55:22.080Z,100569.34
2023-03-25T17:57:49.906Z,100589.50
2023-03-25T18:00:18.762Z,100583.19
2023-03-25T18:02:46.721Z,100575.31
2023-03-25T18:05:13.548Z,100587.28
2023-03-25T18:07:41.925Z,100580.78
2023-03-25T18:10:19.146Z,100600.75
2023-03-25T18:12:46.585Z,100601.41
2023-03-25T18:15:13.412Z,100606.56
2023-03-25T18:17:40.183Z,100612.88
2023-03-25T18:20:14.697Z,100616.66
2023-03-25T18:22:41.735Z,100600.03
2023-03-25T18:25:10.715Z,100614.06
2023-03-25T18:27:43.697Z,100619.53
2023-03-25T18:30:26.573Z,100624.97
2023-03-25T18:32:53.274Z,100614.97
2023-03-25T18:35:20.797Z,100617.66
2023-03-25T18:37:49.890Z,100602.72
2023-03-25T18:40:23.437Z,100612.97
2023-03-25T18:42:51.688Z,100594.94
2023-03-25T18:45:19.843Z,100616.84
2023-03-25T18:47:46.632Z,100637.84
2023-03-25T18:50:31.445Z,100642.94
2023-03-25T18:52:59.100Z,100648.75
2023-03-25T18:55:30.780Z,100647.19
2023-03-25T18:57:58.649Z,100649.56
2023-03-25T19:00:37.266Z,100647.97
2023-03-25T19:03:04.450Z,100658.34
2023-03-25T19:05:31.884Z,100649.38
2023-03-25T19:08:01.195Z,100670.38
2023-03-25T19:10:35.243Z,100681.41
2023-03-25T19:13:04.327Z,100631.88
2023-03-25T19:15:32.345Z,100667.81
2023-03-25T19:18:01.702Z,100627.56
2023-03-25T19:20:32.288Z,100692.19
2023-03-25T19:22:59.616Z,100656.97
2023-03-25T19:25:26.693Z,100682.78
2023-03-25T19:27:54.034Z,100689.53
2023-03-25T19:30:24.140Z,100700.44
2023-03-25T19:32:54.055Z,100698.16
2023-03-25T19:35:24.310Z,100686.72
2023-03-25T19:37:56.398Z,100661.34
2023-03-25T19:40:26.176Z,100530.22
2023-03-25T19:43:00.081Z,100674.09
2023-03-25T19:45:28.054Z,100689.03
2023-03-25T19:47:54.750Z,100683.47
2023-03-25T19:50:27.567Z,100689.81
2023-03-25T19:52:55.890Z,100667.78
2023-03-25T19:55:23.916Z,100680.38
2023-03-25T19:57:51.155Z,100669.06
2023-03-25T20:00:21.961Z,100686.66
2023-03-25T20:02:51.582Z,100700.44
2023-03-25T20:05:22.328Z,100701.28
2023-03-25T20:07:50.958Z,100639.75
2023-03-25T20:10:21.082Z,100696.84
2023-03-25T20:12:49.505Z,100682.97
2023-03-25T20:15:19.600Z,100695.31
2023-03-25T20:17:49.637Z,100676.13
2023-03-25T20:20:16.852Z,100665.56
2023-03-25T20:22:48.284Z,100685.72
2023-03-25T20:25:16.643Z,100693.44
2023-03-25T20:27:43.932Z,100652.50
2023-03-25T20:30:15.444Z,100672.69
2023-03-25T20:32:47.535Z,100686.31
2023-03-25T20:35:16.548Z,100598.97
2023-03-25T20:37:45.696Z,100654.38
2023-03-25T20:40:18.146Z,100617.16
2023-03-25T20:42:48.606Z,100693.03
2023-03-25T20:45:20.162Z,100707.34
2023-03-25T20:47:47.161Z,100687.59
2023-03-25T20:50:16.457Z,100699.78
2023-03-25T20:52:43.876Z,100707.22
2023-03-25T20:55:11.475Z,100713.69
2023-03-25T20:57:38.948Z,100687.47
2023-03-25T21:00:13.390Z,100717.69
2023-03-25T21:02:41.603Z,100705.06
2023-03-25T21:05:08.422Z,100670.88
2023-03-25T21:07:35.596Z,100715.13
2023-03-25T21:10:02.459Z,100706.53
2023-03-25T21:12:42.607Z,100724.44
2023-03-25T21:15:11.472Z,100728.72
2023-03-25T21:17:42.625Z,100722.41
2023-03-25T21:20:10.319Z,100731.72
2023-03-25T21:22:43.145Z,100738.75
2023-03-25T21:25:10.667Z,100734.16
2023-03-25T21:27:38.422Z,100748.03
2023-03-25T21:30:07.901Z,100741.16
2023-03-25T21:32:34.747Z,100737.44
2023-03-25T21:35:03.935Z,100734.00
2023-03-25T21:37:35.677Z,100731.69
2023-03-25T21:40:02.695Z,100741.59
2023-03-25T21:42:29.348Z,100721.22
2023-03-25T21:44:55.958Z,100706.34
2023-03-25T21:47:22.586Z,100717.94
2023-03-25T21:49:51.556Z,100752.88
2023-03-25T21:52:22.312Z,100745.88
2023-03-25T21:54:50.854Z,100756.19
2023-03-25T21:57:17.437Z,100749.75
2023-03-25T21:59:44.043Z,100734.13
2023-03-25T22:02:14.275Z,100745.59
2023-03-25T22:04:41.396Z,100754.03
2023-03-25T22:07:10.331Z,100751.44
2023-03-25T22:09:37.337Z,100746.59
2023-03-25T22:12:06.782Z,100760.06
2023-03-25T22:14:36.188Z,100760.47
2023-03-25T22:17:02.902Z,100760.59
2023-03-25T22:19:33.064Z,100745.28
2023-03-25T22:22:04.507Z,100756.03
2023-03-25T22:24:31.386Z,100757.59
2023-03-25T22:26:58.305Z,100741.13
2023-03-25T22:29:24.904Z,100757.47
2023-03-25T22:31:55.756Z,100752.44
2023-03-25T22:34:22.415Z,100754.28
2023-03-25T22:36:53.040Z,100719.00
2023-03-25T22:39:20.847Z,100768.91
2023-03-25T22:41:52.292Z,100749.66
2023-03-25T22:44:19.168Z,100768.44
2023-03-25T22:46:47.237Z,100757.06
2023-03-25T22:49:14.721Z,100757.06
2023-03-25T22:51:41.726Z,100759.41
2023-03-25T22:54:09.974Z,100739.31
2023-03-25T22:56:37.508Z,100742.88
2023-03-25T22:59:10.315Z,100757.25
2023-03-25T23:01:37.097Z,100757.88
2023-03-25T23:04:04.390Z,100759.44
2023-03-25T23:06:35.532Z,100763.19
2023-03-25T23:09:04.912Z,100762.44
2023-03-25T23:11:31.831Z,100768.94
2023-03-25T23:14:07.435Z,100769.63
2023-03-25T23:16:34.660Z,100747.16
2023-03-25T23:19:02.939Z,100691.34
2023-03-25T23:21:31.834Z,100773.81
2023-03-25T23:24:00.561Z,100781.97
2023-03-25T23:26:30.005Z,100785.13
2023-03-25T23:29:00.721Z,100707.28
2023-03-25T23:31:33.981Z,100776.69
2023-03-25T23:34:04.403Z,100720.22
2023-03-25T23:36:34.405Z,100614.88
2023-03-25T23:39:02.279Z,100765.06
2023-03-25T23:41:29.720Z,100698.75
2023-03-25T23:43:56.649Z,100751.66
2023-03-25T23:46:24.888Z,100762.81
2023-03-25T23:48:54.827Z,100758.09
2023-03-25T23:51:24.091Z,100751.66
2023-03-25T23:53:51.749Z,100710.38
2023-03-25T23:56:20.872Z,100750.91
2023-03-25T23:58:50.319Z,100752.78
